Pagina principale
METAR-TAF:

METAR-TAF

Aeroporti :

Najaf, Iraq

latitudine: 31-59-23N, longitudine: 44-24-15E, altezza: 31 m

Osservazione

Il bollettino è stato emesso 1 ora e 16 minuti fa, alle 16:00 UTC
Vento 10 kt da nord/nord-ovest
Temperature 38°C
Umidità 15%
Pressione 1008 hPa
Visibilità: 9000 m
Poco nuvoloso ad un'altezza di 4000 ft

METAR: ORNI 051600Z 34010KT 9000 FEW040 38/07 Q1008 NOSIG

Ora: 20:16 (17:16 UTC)

Previsione

Il bollettino è stato emesso 7 ore e 16 minuti fa, alle 10:00 UTC
Previsione valida dal 05 alle 12 UTC al 06 alle 12 UTC
Vento 13 kt da nord-ovest
Visibilità 10 km o più
nessuna nube inferiore a 1500 m e nessun cumulonembo

TAF: ORNI 051000Z 0512/0612 32013KT CAVOK

Osservazioni e previsioni meteorologiche di più di 4000 aeroporti (messaggi METAR e TAF).

Le stazioni disponibili sono rappresentate dai dischi gialli e rossi sulla carta.

Puntare il mouse per vedere il nome della stazione.

Clicca sopra per visualizzare le osservazioni e previsioni meteorologiche.

Per cambiare la mappa : fare clic sui pulsanti verdi con una croce nera per ingrandire, il pulsante verde con un trattino per diminuire, o sulla freccia verde per le mappe adiacenti.


METAR-TAF: